Time;durP1;ratioP1;P1;durP2;ratioP2;P2;SDS_P1;SDS_P2;PMS_P1;PMS_P2;Temp;Humidity;BMP_temperature;BMP_pressure;BME280_temperature;BME280_humidity;BME280_pressure;Samples;Min_cycle;Max_cycle;Signal;HPM_P1;HPM_P2
2022/05/19 00:01:46;;;;;;;8.10;2.40;;;12.10;85.50;;;;;;4874364;29;20052;-77
2022/05/19 00:04:14;;;;;;;11.45;2.60;;;12.00;85.60;;;;;;4889988;29;20060;-75
2022/05/19 00:06:41;;;;;;;7.47;2.50;;;12.00;85.60;;;;;;4871974;29;20056;-74
2022/05/19 00:09:09;;;;;;;10.38;2.22;;;12.00;85.70;;;;;;4889880;29;20041;-74
2022/05/19 00:11:38;;;;;;;5.60;2.17;;;12.00;85.80;;;;;;4873869;29;20060;-75
2022/05/19 00:14:06;;;;;;;6.80;2.78;;;11.90;85.90;;;;;;4872131;29;20060;-74
2022/05/19 00:16:34;;;;;;;7.63;2.58;;;11.80;86.00;;;;;;4887752;29;20142;-74
2022/05/19 00:19:03;;;;;;;6.82;2.75;;;11.80;86.20;;;;;;4890709;29;20048;-74
2022/05/19 00:21:31;;;;;;;7.03;2.78;;;11.80;86.30;;;;;;4888164;29;20446;-74
2022/05/19 00:23:59;;;;;;;11.40;2.65;;;11.70;86.50;;;;;;4889460;29;20068;-74
2022/05/19 00:26:26;;;;;;;7.85;2.63;;;11.60;86.70;;;;;;4890025;29;20056;-75
2022/05/19 00:28:57;;;;;;;9.75;2.88;;;11.60;86.70;;;;;;4871926;29;20048;-74
2022/05/19 00:31:26;;;;;;;12.15;3.05;;;11.50;86.80;;;;;;4889617;29;20068;-74
2022/05/19 00:33:54;;;;;;;5.97;2.92;;;11.60;87.00;;;;;;4873915;29;20406;-74
2022/05/19 00:36:21;;;;;;;7.93;2.97;;;11.60;87.10;;;;;;4888424;29;20620;-74
2022/05/19 00:38:49;;;;;;;12.32;3.20;;;11.60;87.10;;;;;;4886346;29;20418;-74
2022/05/19 00:41:17;;;;;;;8.43;3.17;;;11.50;87.10;;;;;;4877072;29;20053;-74
2022/05/19 00:43:56;;;;;;;14.52;3.55;;;11.50;87.20;;;;;;4867246;29;20060;-75
2022/05/19 00:46:31;;;;;;;10.07;3.22;;;11.40;87.30;;;;;;4890968;29;20521;-75
2022/05/19 00:49:09;;;;;;;9.38;3.20;;;11.40;87.50;;;;;;4893764;29;20055;-75
2022/05/19 00:51:49;;;;;;;8.82;3.72;;;11.30;87.50;;;;;;4891830;29;20053;-74
2022/05/19 00:54:21;;;;;;;6.35;3.05;;;11.20;87.60;;;;;;4889777;29;20064;-74
2022/05/19 00:57:10;;;;;;;8.40;3.47;;;11.20;87.80;;;;;;4890279;29;20087;-74
2022/05/19 00:59:48;;;;;;;7.65;3.00;;;11.10;87.90;;;;;;4877507;29;20048;-74
2022/05/19 01:02:21;;;;;;;9.60;3.55;;;11.00;88.00;;;;;;4875896;29;20048;-74
2022/05/19 01:05:05;;;;;;;7.15;3.05;;;10.90;88.00;;;;;;4877354;29;20056;-74
2022/05/19 01:07:46;;;;;;;11.25;3.78;;;10.90;88.20;;;;;;4891203;29;20049;-74
2022/05/19 01:10:14;;;;;;;8.60;3.35;;;10.90;88.20;;;;;;4892911;29;20052;-74
2022/05/19 01:12:46;;;;;;;8.02;3.75;;;10.80;88.30;;;;;;4892409;29;20040;-74
2022/05/19 01:15:15;;;;;;;11.05;4.03;;;10.80;88.40;;;;;;4892639;29;20300;-74
2022/05/19 01:17:49;;;;;;;13.77;3.88;;;10.80;88.30;;;;;;4892968;29;20044;-74
2022/05/19 01:20:24;;;;;;;13.52;3.67;;;10.70;88.40;;;;;;4890345;29;20063;-74
2022/05/19 01:22:57;;;;;;;17.55;4.38;;;10.60;88.50;;;;;;4876065;29;20045;-74
2022/05/19 01:25:25;;;;;;;9.05;3.45;;;10.60;88.80;;;;;;4891871;29;20053;-73
2022/05/19 01:27:53;;;;;;;9.10;3.42;;;10.60;88.70;;;;;;4860781;29;20402;-74
2022/05/19 01:30:21;;;;;;;13.90;3.88;;;10.50;88.90;;;;;;4892600;29;20053;-75
2022/05/19 01:32:49;;;;;;;7.18;3.78;;;10.50;88.90;;;;;;4890091;29;20496;-75
2022/05/19 01:35:17;;;;;;;11.77;4.38;;;10.50;89.00;;;;;;4890580;29;20045;-77
2022/05/19 01:37:44;;;;;;;11.07;4.22;;;10.40;89.10;;;;;;4875528;29;20274;-74
2022/05/19 01:40:35;;;;;;;12.55;3.95;;;10.40;89.10;;;;;;4891890;29;20056;-79
2022/05/19 01:43:31;;;;;;;10.07;4.00;;;10.30;89.30;;;;;;4892353;29;20048;-74
2022/05/19 01:46:09;;;;;;;11.73;4.70;;;10.30;89.30;;;;;;4892924;29;20049;-74
2022/05/19 01:48:55;;;;;;;15.00;5.00;;;10.30;89.30;;;;;;4893024;29;20052;-74
2022/05/19 01:51:38;;;;;;;11.40;4.97;;;10.30;89.40;;;;;;4892769;29;20044;-73
2022/05/19 01:54:18;;;;;;;12.13;5.53;;;10.20;89.40;;;;;;4877861;29;20067;-73
2022/05/19 01:56:55;;;;;;;13.63;6.53;;;10.10;89.50;;;;;;4874311;29;20048;-75
2022/05/19 01:59:47;;;;;;;19.05;7.35;;;10.10;89.50;;;;;;4874948;29;20044;-74
2022/05/19 02:02:29;;;;;;;15.35;7.10;;;10.10;89.70;;;;;;4894236;29;20056;-73
2022/05/19 02:05:33;;;;;;;20.23;7.33;;;10.10;89.60;;;;;;4898453;29;20056;-73
2022/05/19 02:08:05;;;;;;;16.20;7.95;;;10.00;89.70;;;;;;4896807;29;20056;-73
2022/05/19 02:10:37;;;;;;;15.00;7.18;;;10.10;89.70;;;;;;4896793;29;20490;-73
2022/05/19 02:13:05;;;;;;;14.27;7.45;;;10.00;89.60;;;;;;4897279;29;20142;-73
2022/05/19 02:15:39;;;;;;;14.85;7.82;;;9.90;89.60;;;;;;4893313;29;20132;-73
2022/05/19 02:18:08;;;;;;;18.43;7.90;;;9.90;89.90;;;;;;4892095;29;20053;-73
2022/05/19 02:20:39;;;;;;;15.05;7.45;;;9.90;89.80;;;;;;4879869;29;20048;-73
2022/05/19 02:23:11;;;;;;;14.77;7.93;;;9.80;89.90;;;;;;4894582;29;20036;-73
2022/05/19 02:25:48;;;;;;;16.92;7.55;;;9.80;89.90;;;;;;4877537;29;20055;-73
2022/05/19 02:28:26;;;;;;;16.77;7.53;;;9.80;89.90;;;;;;4894450;29;20043;-73
2022/05/19 02:30:55;;;;;;;12.88;7.15;;;9.70;89.90;;;;;;4895393;29;20434;-73
2022/05/19 02:33:23;;;;;;;18.15;7.68;;;9.70;90.10;;;;;;4893858;29;20044;-73
2022/05/19 02:35:51;;;;;;;18.65;7.53;;;9.70;90.20;;;;;;4892932;29;20055;-72
2022/05/19 02:38:21;;;;;;;20.02;7.78;;;9.60;90.20;;;;;;4895924;29;20108;-73
2022/05/19 02:40:49;;;;;;;19.55;8.48;;;9.60;90.20;;;;;;4878291;29;20056;-72
2022/05/19 02:43:18;;;;;;;14.13;7.15;;;9.50;90.10;;;;;;4891645;29;20053;-73
2022/05/19 02:45:49;;;;;;;22.23;8.65;;;9.50;90.10;;;;;;4879875;29;20055;-73
2022/05/19 02:48:18;;;;;;;16.77;7.65;;;9.40;90.20;;;;;;4870081;29;20052;-73
2022/05/19 02:50:48;;;;;;;14.38;7.50;;;9.30;90.30;;;;;;4874189;29;20532;-73
2022/05/19 02:53:18;;;;;;;21.00;6.97;;;9.30;90.20;;;;;;4881999;29;20045;-73
2022/05/19 02:55:46;;;;;;;16.80;6.25;;;9.30;90.30;;;;;;4894789;29;20055;-73
2022/05/19 02:58:14;;;;;;;13.35;6.20;;;9.30;90.70;;;;;;4877144;29;20494;-73
2022/05/19 03:00:44;;;;;;;14.98;6.38;;;9.30;90.80;;;;;;4878968;29;20056;-73
2022/05/19 03:03:12;;;;;;;15.40;6.30;;;9.40;90.70;;;;;;4895362;29;20053;-73
2022/05/19 03:05:40;;;;;;;21.08;6.53;;;9.30;90.60;;;;;;4880230;29;20056;-73
2022/05/19 03:08:09;;;;;;;15.73;5.70;;;9.30;90.60;;;;;;4899073;29;20049;-73
2022/05/19 03:10:40;;;;;;;10.77;5.30;;;9.30;90.60;;;;;;4881541;29;20059;-73
2022/05/19 03:13:15;;;;;;;12.18;5.28;;;9.30;90.50;;;;;;4897973;29;20531;-73
2022/05/19 03:15:45;;;;;;;9.48;5.65;;;9.20;90.30;;;;;;4881952;29;20053;-73
2022/05/19 03:18:13;;;;;;;15.63;6.40;;;9.10;90.30;;;;;;4898914;29;20045;-73
2022/05/19 03:20:41;;;;;;;13.15;6.47;;;9.10;90.70;;;;;;4881791;29;20052;-73
2022/05/19 03:23:08;;;;;;;11.98;7.30;;;9.10;90.90;;;;;;4899116;29;20059;-74
2022/05/19 03:25:37;;;;;;;11.98;6.05;;;9.10;91.00;;;;;;4898255;29;20507;-73
2022/05/19 03:28:11;;;;;;;9.98;5.40;;;9.10;90.80;;;;;;4881718;29;20055;-74
2022/05/19 03:30:39;;;;;;;11.93;5.20;;;9.10;90.70;;;;;;4898082;29;20414;-73
2022/05/19 03:33:07;;;;;;;11.18;5.07;;;9.00;90.80;;;;;;4898592;29;20064;-74
2022/05/19 03:35:35;;;;;;;9.05;4.70;;;9.00;90.70;;;;;;4895674;29;20068;-73
2022/05/19 03:38:06;;;;;;;15.70;5.90;;;9.00;90.70;;;;;;4880096;29;20040;-74
2022/05/19 03:40:34;;;;;;;14.05;5.95;;;8.90;90.70;;;;;;4892505;29;20056;-73
2022/05/19 03:43:02;;;;;;;12.45;5.15;;;8.80;90.70;;;;;;4891796;29;20529;-73
2022/05/19 03:45:42;;;;;;;11.18;5.57;;;8.80;90.70;;;;;;4892890;29;20063;-74
2022/05/19 03:48:10;;;;;;;18.52;6.70;;;8.80;90.80;;;;;;4891460;29;20498;-74
2022/05/19 03:50:46;;;;;;;16.25;7.28;;;8.70;90.90;;;;;;4893402;29;20057;-74
2022/05/19 03:53:14;;;;;;;19.98;7.28;;;8.60;90.90;;;;;;4888721;29;20049;-74
2022/05/19 03:55:42;;;;;;;9.85;5.72;;;8.60;90.90;;;;;;4877595;29;20049;-74
2022/05/19 03:58:09;;;;;;;13.55;5.45;;;8.50;90.80;;;;;;4894093;29;20410;-74
2022/05/19 04:00:40;;;;;;;14.55;6.15;;;8.50;91.00;;;;;;4893433;29;20043;-74
2022/05/19 04:03:08;;;;;;;17.70;5.75;;;8.60;91.20;;;;;;4893224;29;20052;-74
2022/05/19 04:05:38;;;;;;;9.65;6.18;;;8.60;91.30;;;;;;4893195;29;20502;-74
2022/05/19 04:08:06;;;;;;;10.15;5.45;;;8.60;91.20;;;;;;4892157;29;20779;-74
2022/05/19 04:10:34;;;;;;;17.50;6.15;;;8.60;91.00;;;;;;4889917;29;20048;-74
2022/05/19 04:13:11;;;;;;;9.88;6.28;;;8.50;91.00;;;;;;4874346;29;20040;-74
2022/05/19 04:15:42;;;;;;;13.13;6.38;;;8.50;90.90;;;;;;4894910;29;20048;-73
2022/05/19 04:18:10;;;;;;;12.32;6.75;;;8.40;90.80;;;;;;4877797;29;20142;-73
2022/05/19 04:20:37;;;;;;;14.18;7.35;;;8.40;90.90;;;;;;4873772;29;20052;-74
2022/05/19 04:23:06;;;;;;;15.90;7.25;;;8.30;91.00;;;;;;4893494;29;20510;-74
2022/05/19 04:25:34;;;;;;;17.83;7.22;;;8.30;91.10;;;;;;4893305;29;20514;-74
2022/05/19 04:28:02;;;;;;;14.20;7.32;;;8.30;91.30;;;;;;4892964;29;20506;-73
2022/05/19 04:30:30;;;;;;;15.13;7.38;;;8.30;91.30;;;;;;4868601;29;20049;-73
2022/05/19 04:33:02;;;;;;;19.45;8.20;;;8.30;91.30;;;;;;4876778;29;20045;-73
2022/05/19 04:35:30;;;;;;;17.05;8.10;;;8.30;91.40;;;;;;4877164;29;20048;-73
2022/05/19 04:38:07;;;;;;;9.85;6.97;;;8.40;91.50;;;;;;4879230;29;20414;-73
2022/05/19 04:40:36;;;;;;;;;;;8.40;91.40;;;;;;4890293;29;20044;-74
2022/05/19 04:43:11;;;;;;;9.82;6.97;;;8.50;91.50;;;;;;4891370;29;20540;-74
2022/05/19 04:45:39;;;;;;;16.73;9.25;;;8.50;91.40;;;;;;4878861;29;20053;-73
2022/05/19 04:48:07;;;;;;;28.58;8.93;;;8.50;91.40;;;;;;4890625;29;20356;-73
2022/05/19 04:50:37;;;;;;;21.98;9.45;;;8.60;91.30;;;;;;4891626;29;20056;-73
2022/05/19 04:53:05;;;;;;;17.33;5.30;;;8.60;91.20;;;;;;4893081;29;20052;-73
2022/05/19 04:55:38;;;;;;;19.30;4.90;;;8.70;91.40;;;;;;4874205;29;20060;-72
2022/05/19 04:58:06;;;;;;;26.20;7.38;;;8.80;91.30;;;;;;4876334;29;20045;-73
2022/05/19 05:00:43;;;;;;;10.05;5.38;;;8.80;91.20;;;;;;4894233;29;20060;-72
2022/05/19 05:03:10;;;;;;;12.82;5.57;;;8.90;91.10;;;;;;4892718;29;20056;-73
2022/05/19 05:05:38;;;;;;;20.88;7.68;;;8.90;91.10;;;;;;4893268;29;20063;-73
2022/05/19 05:08:06;;;;;;;25.88;6.95;;;9.00;91.20;;;;;;4874687;29;20040;-73
2022/05/19 05:10:34;;;;;;;19.23;6.55;;;9.00;91.10;;;;;;4892968;29;20064;-73
2022/05/19 05:13:11;;;;;;;13.63;5.75;;;9.10;91.10;;;;;;4894132;29;20044;-73
2022/05/19 05:15:41;;;;;;;15.40;5.22;;;9.20;91.20;;;;;;4877402;29;20048;-74
2022/05/19 05:18:09;;;;;;;18.55;5.88;;;9.20;91.20;;;;;;4874434;29;20068;-75
2022/05/19 05:20:42;;;;;;;13.82;6.05;;;9.30;91.10;;;;;;4876600;29;20057;-74
2022/05/19 05:23:10;;;;;;;12.63;5.80;;;9.40;91.10;;;;;;4892429;29;20045;-73
2022/05/19 05:25:41;;;;;;;12.98;5.60;;;9.50;91.00;;;;;;4889189;29;20510;-74
2022/05/19 05:28:08;;;;;;;14.20;5.90;;;9.60;90.90;;;;;;4875795;29;20410;-73
2022/05/19 05:30:36;;;;;;;13.15;5.25;;;9.70;90.90;;;;;;4891863;29;20052;-74
2022/05/19 05:33:08;;;;;;;11.52;4.85;;;9.80;90.80;;;;;;4876748;29;21120;-74
2022/05/19 05:35:37;;;;;;;12.05;5.50;;;9.80;90.80;;;;;;4894039;29;20403;-74
2022/05/19 05:38:05;;;;;;;10.63;4.65;;;9.90;90.70;;;;;;4866271;29;20380;-74
2022/05/19 05:40:36;;;;;;;13.75;7.88;;;10.00;90.60;;;;;;4880086;29;20060;-74
2022/05/19 05:43:13;;;;;;;12.13;5.03;;;10.00;90.60;;;;;;4879638;29;20052;-74
2022/05/19 05:45:42;;;;;;;14.00;3.40;;;10.10;90.50;;;;;;4881083;29;20475;-74
2022/05/19 05:48:10;;;;;;;8.73;3.25;;;10.20;90.50;;;;;;4894676;29;20406;-75
2022/05/19 05:50:39;;;;;;;14.30;4.13;;;10.30;90.50;;;;;;4894881;29;20481;-75
2022/05/19 05:53:08;;;;;;;10.27;3.65;;;10.40;90.40;;;;;;4895638;29;20498;-74
2022/05/19 05:55:39;;;;;;;9.32;3.20;;;10.50;90.30;;;;;;4896342;29;20403;-74
2022/05/19 05:58:09;;;;;;;13.57;3.17;;;10.60;90.20;;;;;;4896658;29;20045;-74
2022/05/19 06:00:38;;;;;;;17.33;2.95;;;10.70;90.10;;;;;;4894155;29;20071;-74
2022/05/19 06:03:06;;;;;;;10.02;2.75;;;10.80;90.00;;;;;;4880611;29;20055;-74
2022/05/19 06:05:34;;;;;;;12.77;2.67;;;10.90;89.90;;;;;;4899684;29;20040;-74
2022/05/19 06:08:02;;;;;;;12.65;3.33;;;11.00;89.70;;;;;;4899067;29;20049;-74
2022/05/19 06:10:30;;;;;;;11.27;2.35;;;11.10;89.60;;;;;;4893575;29;20489;-74
2022/05/19 06:12:58;;;;;;;12.85;2.92;;;11.10;89.50;;;;;;4895964;29;20055;-74
2022/05/19 06:15:26;;;;;;;10.40;2.50;;;11.10;89.30;;;;;;4880002;29;20049;-74
2022/05/19 06:17:53;;;;;;;11.30;2.72;;;11.20;89.20;;;;;;4879697;29;20048;-74
2022/05/19 06:20:23;;;;;;;13.95;2.72;;;11.20;88.80;;;;;;4898255;29;20052;-74
2022/05/19 06:22:53;;;;;;;11.70;2.63;;;11.30;88.80;;;;;;4903127;29;20053;-74
2022/05/19 06:25:23;;;;;;;10.38;2.75;;;11.30;88.60;;;;;;4899889;29;20059;-74
2022/05/19 06:27:51;;;;;;;16.63;3.15;;;11.40;88.40;;;;;;4898826;29;20052;-74
2022/05/19 06:30:20;;;;;;;14.13;2.30;;;11.40;88.10;;;;;;4898904;29;20410;-74
2022/05/19 06:32:49;;;;;;;13.95;2.92;;;11.50;87.90;;;;;;4896876;29;20045;-73
2022/05/19 06:35:20;;;;;;;9.43;2.33;;;11.50;87.80;;;;;;4897554;29;20044;-76
2022/05/19 06:37:49;;;;;;;14.48;3.15;;;11.50;87.50;;;;;;4899050;29;20051;-75
2022/05/19 06:40:18;;;;;;;12.20;2.40;;;11.60;87.20;;;;;;4898589;29;20040;-76
2022/05/19 06:42:47;;;;;;;13.70;2.35;;;11.60;87.00;;;;;;4881885;29;20057;-76
2022/05/19 06:45:20;;;;;;;14.85;2.60;;;11.60;86.80;;;;;;4882029;29;20033;-75
2022/05/19 06:47:48;;;;;;;15.32;2.83;;;11.70;86.80;;;;;;4877945;29;20049;-75
2022/05/19 06:50:17;;;;;;;9.77;2.63;;;11.70;86.50;;;;;;4887950;29;20071;-75
2022/05/19 06:52:51;;;;;;;11.48;2.42;;;11.70;86.40;;;;;;4898986;29;20044;-76
2022/05/19 06:55:20;;;;;;;8.05;2.00;;;11.80;86.20;;;;;;4878875;29;20043;-79
2022/05/19 06:57:49;;;;;;;13.48;3.08;;;11.80;86.00;;;;;;4893039;29;20055;-75
2022/05/19 07:00:21;;;;;;;9.63;2.20;;;11.80;86.00;;;;;;4881813;29;20052;-75
2022/05/19 07:02:54;;;;;;;11.38;2.40;;;11.80;86.00;;;;;;4896157;29;20053;-75
2022/05/19 07:05:23;;;;;;;;;;;11.90;85.90;;;;;;4899280;29;20063;-75
2022/05/19 07:07:51;;;;;;;9.05;2.70;;;11.90;85.80;;;;;;4898551;29;19930;-75
2022/05/19 07:10:21;;;;;;;11.38;2.97;;;12.00;85.70;;;;;;4897890;29;20059;-75
2022/05/19 07:12:49;;;;;;;15.32;2.42;;;12.00;85.70;;;;;;4899182;29;20091;-75
2022/05/19 07:15:19;;;;;;;14.73;2.42;;;12.10;85.50;;;;;;4898469;29;20052;-75
2022/05/19 07:17:47;;;;;;;13.45;2.40;;;12.20;85.40;;;;;;4898371;29;20055;-74
2022/05/19 07:23:05;;;;;;;7.40;2.00;;;12.30;85.40;;;;;;4897721;29;20045;-75
2022/05/19 07:25:34;;;;;;;15.55;2.50;;;12.30;85.00;;;;;;4898946;29;20170;-75
2022/05/19 07:28:02;;;;;;;33.55;3.35;;;12.40;84.80;;;;;;4880511;29;20407;-75
2022/05/19 07:30:29;;;;;;;13.75;2.95;;;12.40;84.80;;;;;;4898350;29;20441;-76
2022/05/19 07:32:59;;;;;;;17.05;2.03;;;12.30;84.80;;;;;;4882335;29;20433;-75
2022/05/19 07:35:27;;;;;;;17.88;2.28;;;12.40;84.60;;;;;;4882102;29;20056;-76
2022/05/19 07:37:55;;;;;;;25.98;2.75;;;12.40;84.20;;;;;;4890015;29;20053;-74
2022/05/19 07:40:22;;;;;;;6.80;1.70;;;12.40;84.20;;;;;;4897929;29;20048;-74
2022/05/19 07:42:50;;;;;;;10.10;1.85;;;12.50;83.60;;;;;;4898324;29;20068;-74
2022/05/19 07:45:18;;;;;;;14.50;2.30;;;12.50;83.20;;;;;;4897674;29;20057;-74
2022/05/19 07:47:46;;;;;;;10.00;2.28;;;12.60;83.10;;;;;;4881005;29;20048;-74
2022/05/19 07:50:14;;;;;;;14.60;2.10;;;12.70;83.20;;;;;;4865605;29;20056;-74
2022/05/19 07:52:43;;;;;;;10.18;1.75;;;12.80;83.00;;;;;;4898343;29;20055;-75
2022/05/19 07:55:10;;;;;;;22.65;2.58;;;12.80;82.10;;;;;;4898132;29;20053;-75
2022/05/19 07:57:38;;;;;;;12.82;2.05;;;12.80;82.00;;;;;;4897858;29;20040;-75
2022/05/19 08:00:07;;;;;;;8.68;1.85;;;12.80;81.70;;;;;;4897396;29;20509;-75
2022/05/19 08:02:40;;;;;;;12.65;1.95;;;12.70;81.20;;;;;;4897292;29;20052;-75
2022/05/19 08:05:08;;;;;;;10.35;2.05;;;12.70;81.30;;;;;;4898216;29;20061;-75
2022/05/19 08:07:36;;;;;;;9.98;1.85;;;12.70;81.00;;;;;;4897490;29;20051;-74
2022/05/19 08:15:44;;;;;;;8.65;1.33;;;12.50;79.50;;;;;;4897489;29;20149;-74
2022/05/19 08:18:13;;;;;;;13.13;1.75;;;12.50;80.00;;;;;;4897247;29;20412;-74
2022/05/19 08:20:47;;;;;;;15.05;2.10;;;12.60;80.30;;;;;;4880808;29;20059;-74
2022/05/19 08:23:21;;;;;;;15.23;2.10;;;12.70;80.40;;;;;;4881422;29;20056;-75
2022/05/19 08:25:49;;;;;;;10.65;1.77;;;12.80;80.10;;;;;;4896417;29;20057;-74
2022/05/19 08:28:18;;;;;;;11.60;1.40;;;12.80;79.40;;;;;;4881141;29;20483;-75
2022/05/19 08:30:51;;;;;;;10.32;1.63;;;12.80;78.90;;;;;;4897666;29;20053;-75
2022/05/19 08:33:20;;;;;;;6.70;1.27;;;12.90;78.80;;;;;;4896289;29;20053;-75
2022/05/19 08:35:49;;;;;;;10.90;1.30;;;12.90;78.80;;;;;;4897477;29;20379;-75
2022/05/19 08:38:16;;;;;;;10.45;1.52;;;12.90;78.60;;;;;;4880494;29;20056;-75
2022/05/19 08:40:52;;;;;;;6.03;1.23;;;13.00;78.30;;;;;;4897306;29;20047;-74
2022/05/19 08:43:25;;;;;;;9.48;1.48;;;13.00;78.30;;;;;;4896931;29;20056;-74
2022/05/19 08:46:02;;;;;;;10.63;1.85;;;13.10;77.50;;;;;;4880228;29;20045;-74
2022/05/19 08:48:30;;;;;;;8.82;1.30;;;13.20;77.60;;;;;;4880540;29;20442;-75
2022/05/19 08:51:04;;;;;;;9.55;1.60;;;13.30;77.90;;;;;;4896861;29;20075;-75
2022/05/19 08:53:40;;;;;;;7.65;1.33;;;13.40;77.50;;;;;;4896902;29;20052;-74
2022/05/19 08:56:16;;;;;;;15.55;2.00;;;13.50;76.40;;;;;;4897494;29;20052;-75
2022/05/19 08:59:05;;;;;;;10.52;1.67;;;13.50;76.00;;;;;;4897449;29;20063;-75
2022/05/19 09:01:43;;;;;;;11.38;1.65;;;13.50;75.90;;;;;;4897359;29;20407;-74
2022/05/19 09:04:48;;;;;;;15.23;1.30;;;13.60;75.90;;;;;;4896624;29;20064;-74
2022/05/19 09:07:57;;;;;;;6.53;1.58;;;13.60;75.00;;;;;;4896783;29;20072;-74
2022/05/19 09:11:06;;;;;;;11.20;1.85;;;13.50;75.30;;;;;;4880474;29;20048;-74
2022/05/19 09:13:44;;;;;;;9.68;1.85;;;13.40;75.60;;;;;;4900380;29;20069;-74
2022/05/19 09:16:19;;;;;;;8.43;1.25;;;13.40;75.50;;;;;;4901351;29;20056;-75
2022/05/19 09:19:16;;;;;;;11.43;1.98;;;13.40;75.20;;;;;;4900930;29;20095;-75
2022/05/19 09:21:45;;;;;;;16.85;1.75;;;13.30;76.10;;;;;;4883763;29;20052;-75
2022/05/19 09:24:13;;;;;;;22.17;2.05;;;13.20;76.40;;;;;;4900111;29;20059;-75
2022/05/19 09:26:52;;;;;;;7.28;1.25;;;13.20;76.60;;;;;;4900426;29;20061;-76
2022/05/19 09:29:28;;;;;;;11.95;1.88;;;13.10;76.70;;;;;;4867989;29;20048;-75
2022/05/19 09:32:15;;;;;;;8.55;1.60;;;13.00;77.10;;;;;;4892571;29;20458;-74
2022/05/19 09:34:47;;;;;;;12.73;2.60;;;13.00;77.50;;;;;;4915855;29;20044;-74
2022/05/19 09:37:21;;;;;;;15.85;2.50;;;13.00;77.60;;;;;;4883636;29;20055;-75
2022/05/19 09:40:06;;;;;;;10.50;2.50;;;13.10;77.60;;;;;;4900261;29;20475;-75
2022/05/19 09:42:54;;;;;;;;;;;13.00;77.50;;;;;;4900834;29;20064;-75
2022/05/19 09:45:27;;;;;;;11.13;2.45;;;13.00;77.40;;;;;;4900375;29;19954;-75
2022/05/19 09:48:00;;;;;;;10.43;1.80;;;13.00;77.60;;;;;;4900692;29;20049;-75
2022/05/19 09:50:32;;;;;;;13.85;1.98;;;13.00;77.70;;;;;;4900504;29;20063;-75
2022/05/19 09:53:05;;;;;;;14.10;2.03;;;13.10;77.10;;;;;;4900315;29;20068;-74
2022/05/19 09:55:39;;;;;;;10.73;1.90;;;13.00;77.00;;;;;;4900195;29;20055;-73
2022/05/19 09:58:10;;;;;;;9.45;1.38;;;13.10;77.20;;;;;;4868008;29;20057;-74
2022/05/19 10:00:46;;;;;;;9.43;1.73;;;13.10;77.30;;;;;;4899843;29;20049;-74
2022/05/19 10:03:24;;;;;;;7.78;1.90;;;13.20;77.30;;;;;;4883802;29;20059;-74
2022/05/19 10:06:07;;;;;;;14.13;1.80;;;13.30;77.20;;;;;;4899442;29;20068;-74
2022/05/19 10:08:41;;;;;;;9.83;1.77;;;13.20;76.70;;;;;;4899706;29;20055;-75
2022/05/19 10:11:17;;;;;;;9.90;1.70;;;13.10;76.70;;;;;;4899956;29;20299;-75
2022/05/19 10:13:52;;;;;;;13.52;1.75;;;13.00;76.50;;;;;;4883214;29;20056;-75
2022/05/19 10:16:48;;;;;;;11.63;2.25;;;13.00;76.70;;;;;;4899590;29;20052;-75
2022/05/19 10:19:30;;;;;;;6.78;1.65;;;13.00;76.60;;;;;;4899707;29;20049;-74
2022/05/19 10:22:16;;;;;;;11.83;2.00;;;13.00;76.80;;;;;;4898994;29;20056;-74
2022/05/19 10:25:17;;;;;;;17.85;2.60;;;13.00;76.60;;;;;;4911963;29;20051;-75
2022/05/19 10:31:04;;;;;;;8.80;1.70;;;13.10;76.90;;;;;;4899846;29;20040;-75
2022/05/19 10:33:53;;;;;;;13.20;1.70;;;13.40;76.10;;;;;;4899416;29;20056;-75
2022/05/19 10:36:26;;;;;;;10.23;1.50;;;13.70;75.40;;;;;;4900933;29;20059;-75
2022/05/19 10:39:29;;;;;;;10.90;2.10;;;14.00;74.60;;;;;;4899786;29;20055;-75
2022/05/19 10:42:16;;;;;;;13.20;2.05;;;14.30;74.30;;;;;;4872096;29;20056;-75
2022/05/19 10:45:00;;;;;;;7.50;1.48;;;14.50;74.00;;;;;;4893627;29;20048;-75
2022/05/19 10:47:46;;;;;;;11.23;1.88;;;14.70;72.40;;;;;;4899194;29;20410;-74
2022/05/19 10:50:32;;;;;;;7.07;1.45;;;14.80;70.60;;;;;;4882539;29;20053;-74
2022/05/19 10:53:27;;;;;;;11.05;1.88;;;14.60;70.20;;;;;;4899218;29;20052;-74
2022/05/19 10:56:01;;;;;;;5.72;1.52;;;14.70;70.90;;;;;;4899291;29;20060;-74
2022/05/19 10:58:56;;;;;;;10.88;1.60;;;14.90;70.40;;;;;;4899161;29;20049;-75
2022/05/19 11:01:55;;;;;;;10.57;1.75;;;15.20;69.00;;;;;;4897944;29;20049;-75
2022/05/19 11:04:41;;;;;;;8.77;1.75;;;15.40;69.00;;;;;;4898646;29;20514;-75
2022/05/19 11:07:41;;;;;;;11.60;1.35;;;15.60;67.60;;;;;;4899114;29;20053;-75
2022/05/19 11:10:17;;;;;;;9.48;2.00;;;15.60;66.10;;;;;;4898011;29;20495;-74
2022/05/19 11:12:58;;;;;;;6.85;1.50;;;15.50;66.30;;;;;;4898548;29;20056;-75
2022/05/19 11:15:36;;;;;;;6.82;1.25;;;15.60;66.10;;;;;;4898818;29;20044;-74
2022/05/19 11:18:19;;;;;;;7.72;1.58;;;15.80;66.20;;;;;;4898448;29;20056;-74
2022/05/19 11:21:00;;;;;;;8.75;1.42;;;16.10;65.30;;;;;;4899006;29;20051;-75
2022/05/19 11:23:37;;;;;;;7.35;1.45;;;16.40;64.10;;;;;;4881509;29;20422;-75
2022/05/19 11:26:27;;;;;;;11.25;1.52;;;16.70;62.30;;;;;;4897177;29;20060;-74
2022/05/19 11:29:11;;;;;;;9.98;1.00;;;16.90;60.30;;;;;;4882769;29;20174;-74
2022/05/19 11:31:46;;;;;;;8.55;1.27;;;17.00;59.80;;;;;;4898651;29;20052;-75
2022/05/19 11:34:30;;;;;;;5.43;1.00;;;17.20;59.60;;;;;;4896492;29;20063;-75
2022/05/19 11:37:17;;;;;;;8.73;1.30;;;17.30;59.20;;;;;;4898809;29;20040;-75
2022/05/19 11:40:07;;;;;;;9.25;1.92;;;17.50;58.10;;;;;;4898585;29;20063;-74
2022/05/19 11:42:50;;;;;;;8.70;1.60;;;17.60;58.00;;;;;;4898572;29;20053;-75
2022/05/19 11:45:40;;;;;;;5.32;1.23;;;17.80;56.90;;;;;;4882026;29;20068;-75
2022/05/19 11:57:40;;;;;;;4.07;1.00;;;18.30;53.20;;;;;;4881138;29;20051;-74
2022/05/19 12:00:13;;;;;;;6.40;1.10;;;18.50;52.60;;;;;;4897864;29;20045;-74
2022/05/19 12:02:54;;;;;;;5.20;1.02;;;18.50;52.30;;;;;;4897994;29;20290;-74
2022/05/19 12:05:28;;;;;;;9.10;1.60;;;18.70;51.80;;;;;;4897861;29;20081;-74
2022/05/19 12:08:06;;;;;;;6.05;1.23;;;18.80;51.80;;;;;;4881525;29;20422;-74
2022/05/19 12:10:39;;;;;;;6.85;1.40;;;19.00;51.00;;;;;;4897959;29;20410;-74
2022/05/19 12:13:11;;;;;;;6.70;1.13;;;19.10;51.00;;;;;;4897297;29;20056;-74
2022/05/19 12:16:06;;;;;;;6.00;1.30;;;19.30;49.20;;;;;;4897558;29;20040;-74
2022/05/19 12:18:36;;;;;;;7.80;1.10;;;19.50;49.00;;;;;;4897551;29;20056;-75
2022/05/19 12:21:04;;;;;;;5.93;1.15;;;19.50;48.20;;;;;;4880768;29;20494;-75
2022/05/19 12:23:39;;;;;;;4.75;1.20;;;19.80;47.60;;;;;;4897430;29;20138;-74
2022/05/19 12:26:16;;;;;;;6.05;1.63;;;20.10;47.00;;;;;;4881036;29;20056;-75
2022/05/19 12:29:33;;;;;;;7.47;1.40;;;20.30;46.10;;;;;;4880820;29;20080;-75
2022/05/19 12:32:30;;;;;;;5.57;1.30;;;20.70;46.90;;;;;;4821834;29;20059;-75
2022/05/19 12:35:08;;;;;;;7.03;1.15;;;21.00;46.40;;;;;;4818461;29;20106;-75
2022/05/19 12:37:42;;;;;;;6.65;1.30;;;21.30;44.70;;;;;;4821499;29;20061;-75
2022/05/19 12:40:24;;;;;;;4.60;1.20;;;21.40;45.20;;;;;;4834353;29;20058;-75
2022/05/19 12:43:12;;;;;;;8.15;1.52;;;21.80;44.40;;;;;;4836187;29;20432;-75
2022/05/19 12:45:55;;;;;;;4.15;1.00;;;22.20;43.50;;;;;;4802811;29;20078;-75
2022/05/19 12:48:44;;;;;;;6.20;1.35;;;22.60;42.20;;;;;;4802880;29;20055;-75
2022/05/19 12:51:27;;;;;;;7.15;1.30;;;23.10;39.80;;;;;;4803172;29;20063;-75
2022/05/19 12:54:05;;;;;;;3.05;1.00;;;23.00;38.70;;;;;;4788216;29;20075;-75
2022/05/19 12:56:41;;;;;;;6.47;1.10;;;22.90;39.00;;;;;;4803125;29;20054;-75
2022/05/19 12:59:23;;;;;;;4.25;1.27;;;22.80;37.10;;;;;;4802902;29;20402;-75
2022/05/19 13:01:57;;;;;;;4.32;1.45;;;22.60;37.60;;;;;;4817437;29;20111;-75
2022/05/19 13:04:36;;;;;;;9.45;1.90;;;22.60;38.30;;;;;;4821090;29;20054;-75
2022/05/19 13:07:23;;;;;;;4.38;1.25;;;22.80;38.00;;;;;;4821458;29;20505;-75
2022/05/19 13:10:18;;;;;;;5.25;1.52;;;23.10;39.30;;;;;;4824020;29;20057;-75
2022/05/19 13:12:54;;;;;;;4.45;1.02;;;23.80;38.20;;;;;;4821131;29;20059;-74
2022/05/19 13:15:28;;;;;;;5.65;1.40;;;24.20;38.20;;;;;;4790639;29;20050;-75
2022/05/19 13:17:58;;;;;;;5.35;1.25;;;24.70;37.80;;;;;;4821290;29;20417;-75
2022/05/19 13:20:36;;;;;;;3.65;1.27;;;24.90;35.50;;;;;;4821142;29;20092;-75
2022/05/19 13:23:20;;;;;;;3.63;1.10;;;25.20;35.80;;;;;;4838721;29;20060;-75
2022/05/19 13:25:50;;;;;;;4.20;1.20;;;25.70;35.30;;;;;;4877111;29;20052;-74
2022/05/19 13:31:26;;;;;;;4.60;1.10;;;26.50;32.80;;;;;;4877028;29;20056;-74
2022/05/19 13:33:59;;;;;;;3.40;1.10;;;26.40;32.30;;;;;;4846514;29;20049;-74
2022/05/19 13:36:33;;;;;;;5.82;1.38;;;26.20;33.10;;;;;;4878259;29;20045;-74
2022/05/19 13:39:11;;;;;;;5.60;1.15;;;26.00;33.00;;;;;;4878081;29;20057;-75
2022/05/19 13:41:47;;;;;;;3.90;1.05;;;26.00;32.50;;;;;;4896243;29;20056;-75
2022/05/19 13:44:33;;;;;;;5.10;1.17;;;25.80;30.60;;;;;;4896739;29;20415;-75